Time;durP1;ratioP1;P1;durP2;ratioP2;P2;SDS_P1;SDS_P2;PMS_P1;PMS_P2;Temp;Humidity;BMP_temperature;BMP_pressure;BME280_temperature;BME280_humidity;BME280_pressure;Samples;Min_cycle;Max_cycle;Signal;HPM_P1;HPM_P2
2022/05/31 00:01:47;;;;;;;4.57;1.85;;;10.40;99.90;;;;;;4975074;28;20444;-83
2022/05/31 00:04:15;;;;;;;3.80;1.80;;;10.40;99.90;;;;;;4959277;28;20574;-84
2022/05/31 00:06:41;;;;;;;6.10;2.22;;;10.40;99.90;;;;;;4975212;28;20046;-83
2022/05/31 00:09:07;;;;;;;5.97;2.20;;;10.50;99.90;;;;;;4958629;28;20092;-84
2022/05/31 00:11:32;;;;;;;6.63;1.88;;;10.50;99.90;;;;;;4975151;28;20046;-83
2022/05/31 00:13:58;;;;;;;6.15;2.22;;;10.50;99.90;;;;;;4958493;28;20085;-84
2022/05/31 00:16:23;;;;;;;5.45;2.22;;;10.50;99.90;;;;;;4975169;28;20038;-84
2022/05/31 00:18:49;;;;;;;5.53;2.40;;;10.50;99.90;;;;;;4974502;28;20046;-84
2022/05/31 00:21:14;;;;;;;5.50;1.98;;;10.50;99.90;;;;;;4974937;28;20038;-84
2022/05/31 00:23:41;;;;;;;5.55;1.85;;;10.50;99.90;;;;;;4975034;28;20084;-84
2022/05/31 00:26:08;;;;;;;7.85;2.90;;;10.50;99.90;;;;;;4958004;28;20053;-84
2022/05/31 00:28:33;;;;;;;5.82;2.35;;;10.40;99.90;;;;;;4958513;28;20777;-84
2022/05/31 00:30:59;;;;;;;4.78;1.83;;;10.40;99.90;;;;;;4958573;28;20129;-84
2022/05/31 00:33:26;;;;;;;6.50;2.28;;;10.40;99.90;;;;;;4975170;28;20077;-84
2022/05/31 00:35:53;;;;;;;6.55;2.00;;;10.40;99.90;;;;;;4975022;28;20042;-84
2022/05/31 00:38:20;;;;;;;7.45;2.22;;;10.40;99.90;;;;;;4974476;28;20050;-84
2022/05/31 00:40:46;;;;;;;6.22;2.22;;;10.40;99.90;;;;;;4958409;28;20065;-84
2022/05/31 00:43:14;;;;;;;6.25;2.15;;;10.40;99.90;;;;;;4974694;28;20070;-83
2022/05/31 00:45:55;;;;;;;5.00;2.08;;;10.40;99.90;;;;;;4958685;28;20042;-84
2022/05/31 00:48:25;;;;;;;5.25;2.20;;;10.40;99.90;;;;;;4974581;28;20050;-83
2022/05/31 00:50:55;;;;;;;5.60;2.22;;;10.40;99.90;;;;;;4977729;28;20133;-83
2022/05/31 00:53:28;;;;;;;5.13;2.17;;;10.40;99.90;;;;;;4978412;28;20050;-84
2022/05/31 00:56:03;;;;;;;5.95;2.15;;;10.40;99.90;;;;;;4978571;28;20404;-84
2022/05/31 00:58:35;;;;;;;5.90;2.53;;;10.40;99.90;;;;;;4995723;28;20042;-83
2022/05/31 01:01:06;;;;;;;5.35;1.98;;;10.30;99.90;;;;;;4978240;28;20049;-84
2022/05/31 01:03:42;;;;;;;5.32;2.22;;;10.30;99.90;;;;;;4961588;28;20042;-84
2022/05/31 01:06:12;;;;;;;5.97;2.05;;;10.30;99.90;;;;;;4977424;28;20035;-83
2022/05/31 01:08:45;;;;;;;5.57;2.10;;;10.30;99.90;;;;;;4977155;28;20389;-83
2022/05/31 01:11:17;;;;;;;5.22;1.88;;;10.30;99.90;;;;;;4961297;28;20050;-84
2022/05/31 01:13:43;;;;;;;6.28;2.20;;;10.20;99.90;;;;;;4978210;28;20531;-83
2022/05/31 01:16:12;;;;;;;4.80;1.95;;;10.10;99.90;;;;;;4978485;28;20064;-83
2022/05/31 01:18:38;;;;;;;6.50;2.13;;;10.10;99.90;;;;;;4961634;28;20487;-83
2022/05/31 01:21:04;;;;;;;4.93;1.92;;;10.10;99.90;;;;;;4961880;28;20125;-83
2022/05/31 01:23:37;;;;;;;7.13;2.35;;;10.10;99.90;;;;;;4961808;28;20492;-83
2022/05/31 01:26:21;;;;;;;5.57;2.00;;;10.00;99.90;;;;;;4978003;28;20085;-83
2022/05/31 01:28:52;;;;;;;6.93;2.00;;;10.00;99.90;;;;;;4977822;28;20046;-83
2022/05/31 01:31:33;;;;;;;6.38;2.20;;;10.00;99.90;;;;;;4977740;28;20038;-83
2022/05/31 01:34:18;;;;;;;5.85;1.95;;;10.00;99.90;;;;;;4962194;28;20042;-83
2022/05/31 01:36:52;;;;;;;8.23;3.15;;;10.00;99.90;;;;;;4961653;28;20069;-83
2022/05/31 01:39:53;;;;;;;6.63;2.20;;;10.00;99.90;;;;;;4977369;28;20092;-83
2022/05/31 01:42:25;;;;;;;6.47;2.33;;;10.00;99.90;;;;;;4977569;28;20038;-83
2022/05/31 01:44:54;;;;;;;5.65;2.33;;;10.00;99.90;;;;;;4961598;28;20069;-83
2022/05/31 01:47:20;;;;;;;5.47;2.22;;;9.90;99.90;;;;;;4977649;28;20038;-83
2022/05/31 01:49:50;;;;;;;6.35;2.30;;;9.90;99.90;;;;;;4961097;28;20124;-83
2022/05/31 01:52:17;;;;;;;5.88;2.05;;;9.90;99.90;;;;;;4977303;28;20446;-83
2022/05/31 01:54:43;;;;;;;5.75;2.20;;;9.90;99.90;;;;;;4961603;28;20049;-83
2022/05/31 01:57:11;;;;;;;6.60;2.38;;;9.90;99.90;;;;;;4961426;28;20054;-83
2022/05/31 01:59:41;;;;;;;6.70;2.60;;;9.90;99.90;;;;;;4970430;28;20039;-82
2022/05/31 02:02:07;;;;;;;5.78;2.42;;;9.90;99.90;;;;;;4971204;28;20137;-83
2022/05/31 02:04:33;;;;;;;6.43;2.45;;;9.90;99.90;;;;;;4969806;28;20503;-83
2022/05/31 02:07:34;;;;;;;5.68;2.53;;;9.90;99.90;;;;;;4970737;28;20042;-83
2022/05/31 02:09:59;;;;;;;7.40;2.33;;;9.90;99.90;;;;;;4928362;29;20432;-83
2022/05/31 02:12:28;;;;;;;5.18;2.25;;;9.90;99.90;;;;;;4959683;28;20049;-82
2022/05/31 02:14:54;;;;;;;6.88;2.50;;;9.80;99.90;;;;;;4976874;28;20038;-83
2022/05/31 02:17:20;;;;;;;5.65;2.42;;;9.80;99.90;;;;;;4961617;28;20483;-83
2022/05/31 02:19:46;;;;;;;5.28;2.28;;;9.80;99.90;;;;;;4960637;28;20078;-82
2022/05/31 02:22:16;;;;;;;5.45;2.47;;;9.80;99.90;;;;;;4977271;28;20135;-83
2022/05/31 02:24:42;;;;;;;7.20;2.60;;;9.80;99.90;;;;;;4977007;28;20034;-83
2022/05/31 02:27:09;;;;;;;6.00;2.13;;;9.80;99.90;;;;;;4960861;28;20042;-83
2022/05/31 02:29:36;;;;;;;7.70;2.40;;;9.80;99.90;;;;;;4976416;28;20121;-83
2022/05/31 02:32:05;;;;;;;4.55;1.90;;;9.80;99.90;;;;;;4961005;28;20042;-83
2022/05/31 02:34:33;;;;;;;5.75;1.98;;;9.80;99.90;;;;;;4976697;28;20104;-83
2022/05/31 02:36:59;;;;;;;5.57;2.30;;;9.80;99.90;;;;;;4976815;28;20074;-82
2022/05/31 02:39:25;;;;;;;9.00;2.58;;;9.80;99.90;;;;;;4976326;28;20081;-83
2022/05/31 02:41:51;;;;;;;5.05;2.28;;;9.80;99.90;;;;;;4976643;28;20077;-83
2022/05/31 02:44:18;;;;;;;5.10;2.25;;;9.80;99.90;;;;;;4976534;28;20121;-82
2022/05/31 02:46:44;;;;;;;5.80;2.30;;;9.80;99.90;;;;;;4976643;28;20038;-83
2022/05/31 02:49:10;;;;;;;7.75;2.80;;;9.80;99.90;;;;;;4976366;28;20038;-83
2022/05/31 02:51:41;;;;;;;5.50;2.22;;;9.90;99.90;;;;;;4976495;28;20096;-83
2022/05/31 02:54:08;;;;;;;5.65;2.60;;;9.90;99.90;;;;;;4976416;28;20065;-83
2022/05/31 02:56:34;;;;;;;5.90;2.30;;;9.80;99.90;;;;;;4960244;28;20196;-82
2022/05/31 02:59:00;;;;;;;5.20;2.22;;;9.80;99.90;;;;;;4975896;28;20599;-83
2022/05/31 03:01:30;;;;;;;5.75;2.50;;;9.80;99.90;;;;;;4976342;28;20089;-83
2022/05/31 03:03:55;;;;;;;6.38;2.45;;;9.80;99.90;;;;;;4976297;28;20038;-83
2022/05/31 03:06:22;;;;;;;5.90;2.55;;;9.80;99.90;;;;;;4976260;28;20030;-83
2022/05/31 03:08:47;;;;;;;4.45;1.92;;;9.80;99.90;;;;;;4976155;28;20092;-83
2022/05/31 03:11:27;;;;;;;4.75;1.98;;;9.80;99.90;;;;;;4959072;28;20644;-82
2022/05/31 03:13:57;;;;;;;4.90;1.98;;;9.80;99.90;;;;;;4976419;28;20412;-83
2022/05/31 03:16:23;;;;;;;8.40;2.63;;;9.80;99.90;;;;;;4960260;28;20049;-83
2022/05/31 03:18:57;;;;;;;5.20;2.17;;;9.80;99.90;;;;;;4959268;28;20042;-83
2022/05/31 03:21:30;;;;;;;5.63;2.08;;;9.80;99.90;;;;;;4975970;28;20042;-83
2022/05/31 03:24:00;;;;;;;7.60;2.10;;;9.90;99.90;;;;;;4975767;28;20046;-83
2022/05/31 03:26:29;;;;;;;5.68;2.28;;;9.90;99.90;;;;;;4975749;28;20042;-83
2022/05/31 03:28:54;;;;;;;6.07;2.22;;;9.90;99.90;;;;;;4959139;28;20046;-82
2022/05/31 03:31:20;;;;;;;6.68;2.40;;;9.90;99.90;;;;;;4975789;28;20038;-83
2022/05/31 03:33:46;;;;;;;6.53;3.25;;;9.90;99.90;;;;;;4975630;28;20447;-83
2022/05/31 03:36:12;;;;;;;6.53;2.47;;;9.90;99.90;;;;;;4975492;28;20074;-83
2022/05/31 03:38:38;;;;;;;7.07;3.13;;;9.90;99.90;;;;;;4959120;28;20035;-82
2022/05/31 03:41:04;;;;;;;7.25;3.35;;;9.90;99.90;;;;;;4975546;28;20042;-83
2022/05/31 03:43:32;;;;;;;7.75;3.25;;;10.00;99.90;;;;;;4959325;28;20463;-83
2022/05/31 03:45:58;;;;;;;7.55;3.45;;;10.00;99.90;;;;;;4959721;28;20479;-83
2022/05/31 03:48:23;;;;;;;7.72;3.05;;;10.00;99.90;;;;;;4975367;28;20078;-83
2022/05/31 03:51:04;;;;;;;8.02;3.65;;;10.00;99.90;;;;;;4959333;28;20455;-84
2022/05/31 03:53:30;;;;;;;8.38;3.35;;;10.10;99.90;;;;;;4975446;28;20038;-83
2022/05/31 03:55:56;;;;;;;9.95;3.95;;;10.10;99.90;;;;;;4959175;28;20053;-83
2022/05/31 03:58:23;;;;;;;8.23;3.28;;;10.10;99.90;;;;;;4958878;28;20042;-83
2022/05/31 04:00:49;;;;;;;7.43;3.80;;;10.10;99.90;;;;;;4975166;28;20073;-82
2022/05/31 04:03:15;;;;;;;9.63;3.70;;;10.20;99.90;;;;;;4975332;28;20069;-83
2022/05/31 04:05:40;;;;;;;8.48;3.88;;;10.20;99.90;;;;;;4959005;28;20108;-83
2022/05/31 04:08:10;;;;;;;7.18;3.38;;;10.20;99.90;;;;;;4974912;28;20041;-83
2022/05/31 04:10:37;;;;;;;7.72;3.50;;;10.20;99.90;;;;;;4975252;28;20031;-83
2022/05/31 04:13:03;;;;;;;9.27;3.70;;;10.20;99.90;;;;;;4975079;28;20041;-83
2022/05/31 04:15:28;;;;;;;7.07;3.38;;;10.20;99.90;;;;;;4975187;28;20038;-83
2022/05/31 04:17:54;;;;;;;10.65;3.75;;;10.20;99.90;;;;;;4974703;28;20042;-83
2022/05/31 04:20:20;;;;;;;7.95;3.40;;;10.30;99.90;;;;;;4975012;28;20120;-83
2022/05/31 04:22:46;;;;;;;8.65;3.67;;;10.30;99.90;;;;;;4958776;28;20454;-83
2022/05/31 04:25:12;;;;;;;8.07;4.43;;;10.30;99.90;;;;;;4974821;28;20042;-83
2022/05/31 04:27:38;;;;;;;8.30;3.75;;;10.30;99.90;;;;;;4974355;28;20403;-83
2022/05/31 04:30:04;;;;;;;10.88;3.80;;;10.40;99.90;;;;;;4974855;28;20061;-83
2022/05/31 04:32:29;;;;;;;7.70;3.60;;;10.40;99.90;;;;;;4974926;28;20176;-83
2022/05/31 04:34:55;;;;;;;7.75;3.40;;;10.40;99.90;;;;;;4974835;28;20045;-83
2022/05/31 04:37:21;;;;;;;8.90;3.65;;;10.40;99.90;;;;;;4974913;28;20448;-83
2022/05/31 04:39:47;;;;;;;9.50;4.32;;;10.40;99.90;;;;;;4974358;28;20045;-83
2022/05/31 04:42:12;;;;;;;9.98;3.95;;;10.40;99.90;;;;;;4974998;28;20034;-83
2022/05/31 04:44:38;;;;;;;7.50;3.67;;;10.50;99.90;;;;;;4974853;28;20499;-83
2022/05/31 04:47:06;;;;;;;8.35;3.88;;;10.50;99.90;;;;;;4974487;28;20046;-83
2022/05/31 04:49:31;;;;;;;8.20;3.47;;;10.50;99.90;;;;;;4958619;28;20079;-83
2022/05/31 04:51:57;;;;;;;8.07;3.38;;;10.50;99.90;;;;;;4974714;28;20081;-83
2022/05/31 04:54:24;;;;;;;8.23;4.05;;;10.50;99.90;;;;;;4974573;28;20038;-83
2022/05/31 04:56:52;;;;;;;8.43;4.03;;;10.60;99.90;;;;;;4974679;28;20050;-83
2022/05/31 04:59:19;;;;;;;9.32;3.97;;;10.50;99.90;;;;;;4974125;28;20046;-83
2022/05/31 05:01:44;;;;;;;9.05;4.53;;;10.60;99.90;;;;;;4974839;28;20052;-83
2022/05/31 05:04:10;;;;;;;9.00;4.30;;;10.60;99.90;;;;;;4958528;28;20121;-83
2022/05/31 05:06:36;;;;;;;10.70;4.32;;;10.60;99.90;;;;;;4958670;28;20042;-83
2022/05/31 05:09:02;;;;;;;8.63;4.60;;;10.60;99.90;;;;;;4957971;28;20039;-83
2022/05/31 05:11:28;;;;;;;8.38;4.15;;;10.70;99.90;;;;;;4958426;28;20062;-83
2022/05/31 05:13:56;;;;;;;9.65;4.35;;;10.70;99.90;;;;;;4958592;28;20046;-83
2022/05/31 05:16:22;;;;;;;7.80;4.20;;;10.70;99.90;;;;;;4974368;28;20053;-83
2022/05/31 05:18:48;;;;;;;9.10;4.38;;;10.70;99.90;;;;;;4957805;28;20043;-83
2022/05/31 05:21:15;;;;;;;9.52;4.53;;;10.80;99.90;;;;;;4958662;28;20512;-83
2022/05/31 05:23:41;;;;;;;10.05;4.80;;;10.80;99.90;;;;;;4958551;28;20500;-83
2022/05/31 05:26:08;;;;;;;8.98;4.20;;;10.80;99.90;;;;;;4974470;28;20121;-83
2022/05/31 05:31:30;;;;;;;11.00;4.93;;;10.90;99.90;;;;;;4974138;28;20043;-83
2022/05/31 05:33:57;;;;;;;10.52;5.05;;;10.90;99.90;;;;;;4958264;28;20050;-83
2022/05/31 05:36:23;;;;;;;8.25;5.07;;;10.90;99.90;;;;;;4978110;28;20048;-83
2022/05/31 05:38:49;;;;;;;9.60;4.80;;;11.00;99.90;;;;;;4977387;28;20053;-83
2022/05/31 05:41:16;;;;;;;8.63;4.50;;;11.00;99.90;;;;;;4961879;28;20030;-83
2022/05/31 05:43:41;;;;;;;8.80;4.40;;;11.00;99.90;;;;;;4977803;28;20495;-83
2022/05/31 05:46:14;;;;;;;8.27;4.40;;;11.10;99.90;;;;;;4961673;28;20034;-83
2022/05/31 05:48:40;;;;;;;10.50;4.50;;;11.10;99.90;;;;;;4961079;28;20647;-83
2022/05/31 05:51:23;;;;;;;8.68;5.28;;;11.20;99.90;;;;;;4977726;28;20130;-83
2022/05/31 05:53:50;;;;;;;;;;;11.30;99.90;;;;;;4977843;28;20408;-83
2022/05/31 05:56:16;;;;;;;9.80;4.00;;;11.30;99.90;;;;;;4977392;28;19940;-83
2022/05/31 05:58:42;;;;;;;8.95;3.97;;;11.30;99.90;;;;;;4977066;28;20050;-83
2022/05/31 06:01:21;;;;;;;8.93;4.65;;;11.30;99.90;;;;;;4977446;28;20407;-83
2022/05/31 06:04:06;;;;;;;9.40;4.00;;;11.40;99.90;;;;;;4977614;28;20084;-83
2022/05/31 06:06:34;;;;;;;10.02;4.45;;;11.40;99.90;;;;;;4977304;28;20053;-83
2022/05/31 06:09:08;;;;;;;10.02;4.63;;;11.40;99.90;;;;;;4977190;28;20196;-83
2022/05/31 06:11:59;;;;;;;10.07;4.25;;;11.50;99.90;;;;;;4977314;28;20062;-83
2022/05/31 06:14:37;;;;;;;10.48;4.80;;;11.50;99.90;;;;;;4977477;28;20049;-83
2022/05/31 06:17:16;;;;;;;10.38;4.47;;;11.60;99.90;;;;;;4961145;28;20046;-83
2022/05/31 06:19:44;;;;;;;9.32;4.43;;;11.60;99.90;;;;;;4976598;28;20133;-83
2022/05/31 06:22:09;;;;;;;10.80;4.18;;;11.70;99.90;;;;;;4977066;28;20038;-83
2022/05/31 06:24:37;;;;;;;11.18;4.85;;;11.80;99.90;;;;;;4977135;28;20125;-83
2022/05/31 06:27:03;;;;;;;11.23;4.32;;;11.80;99.90;;;;;;4976750;28;20042;-83
2022/05/31 06:29:29;;;;;;;7.88;4.05;;;11.90;99.90;;;;;;4976668;28;20046;-83
2022/05/31 06:31:54;;;;;;;8.60;4.32;;;11.90;99.90;;;;;;4960607;28;20042;-84
2022/05/31 06:34:20;;;;;;;8.40;4.28;;;12.00;99.90;;;;;;4976860;28;20045;-83
2022/05/31 06:36:46;;;;;;;10.25;4.43;;;12.20;99.90;;;;;;4976661;28;20049;-83
2022/05/31 06:39:11;;;;;;;8.50;4.38;;;12.30;99.90;;;;;;4976357;28;20046;-83
2022/05/31 06:41:37;;;;;;;9.27;5.05;;;12.40;99.90;;;;;;4976799;28;20057;-83
2022/05/31 06:44:03;;;;;;;10.77;4.63;;;12.50;99.90;;;;;;4976520;28;20039;-83
2022/05/31 06:46:29;;;;;;;10.00;5.05;;;12.50;99.90;;;;;;4975454;28;20034;-83
2022/05/31 06:48:56;;;;;;;9.57;4.38;;;12.70;99.90;;;;;;4960055;28;20042;-83
2022/05/31 06:56:53;;;;;;;9.57;4.25;;;12.90;99.90;;;;;;4976779;28;20097;-84
2022/05/31 06:59:18;;;;;;;8.93;3.67;;;12.90;99.90;;;;;;4975892;28;20042;-84
2022/05/31 07:01:47;;;;;;;10.05;4.22;;;13.00;99.90;;;;;;4976350;28;20045;-84
2022/05/31 07:04:13;;;;;;;8.65;4.30;;;13.10;99.90;;;;;;4976254;28;20042;-85
2022/05/31 07:06:38;;;;;;;9.32;4.15;;;13.30;99.90;;;;;;4960005;28;20049;-84
2022/05/31 07:09:04;;;;;;;8.07;3.55;;;13.40;99.90;;;;;;4959854;28;20071;-84
2022/05/31 07:11:30;;;;;;;8.25;3.70;;;13.50;99.90;;;;;;4975919;28;20038;-84
2022/05/31 07:13:55;;;;;;;8.52;3.58;;;13.60;99.90;;;;;;4976055;28;20147;-84
2022/05/31 07:16:21;;;;;;;9.10;3.88;;;13.60;99.90;;;;;;4976300;28;20061;-84
2022/05/31 07:18:47;;;;;;;8.43;3.00;;;13.80;99.90;;;;;;4975736;28;20496;-84
2022/05/31 07:21:13;;;;;;;10.00;3.50;;;13.80;99.90;;;;;;4975810;28;20046;-84
2022/05/31 07:23:40;;;;;;;9.43;3.58;;;13.90;99.90;;;;;;4960010;28;20046;-84
2022/05/31 07:26:06;;;;;;;8.10;2.92;;;14.00;99.90;;;;;;4975809;28;20065;-83
2022/05/31 07:28:32;;;;;;;7.05;3.10;;;14.00;99.90;;;;;;4975523;28;20050;-84
2022/05/31 07:30:57;;;;;;;10.07;2.95;;;14.10;99.90;;;;;;4975720;28;20072;-85
2022/05/31 07:33:24;;;;;;;8.23;3.80;;;14.10;99.90;;;;;;4975790;28;20053;-84
2022/05/31 07:35:50;;;;;;;7.82;3.15;;;14.10;99.90;;;;;;4959480;28;20093;-84
2022/05/31 07:38:16;;;;;;;8.35;2.85;;;14.20;99.90;;;;;;4959143;28;20407;-84
2022/05/31 07:40:44;;;;;;;6.80;3.15;;;14.30;99.90;;;;;;4975585;28;20043;-84
2022/05/31 07:43:10;;;;;;;9.48;3.45;;;14.40;99.90;;;;;;4959413;28;20041;-84
2022/05/31 07:45:36;;;;;;;8.52;3.38;;;14.40;99.90;;;;;;4975632;28;20436;-84
2022/05/31 07:48:03;;;;;;;8.48;3.65;;;14.50;99.90;;;;;;4975121;28;20042;-84
2022/05/31 07:50:29;;;;;;;8.40;3.60;;;14.60;99.90;;;;;;4975153;28;20046;-83
2022/05/31 07:52:54;;;;;;;9.20;3.45;;;14.80;99.90;;;;;;4959577;28;20042;-84
2022/05/31 07:55:20;;;;;;;9.45;3.72;;;14.80;99.90;;;;;;4975401;28;20034;-84
2022/05/31 08:00:31;;;;;;;8.30;3.30;;;15.00;99.90;;;;;;4975481;28;20050;-84
2022/05/31 08:02:57;;;;;;;10.93;2.83;;;15.10;99.90;;;;;;4975227;28;20097;-84
2022/05/31 08:05:22;;;;;;;9.50;3.33;;;15.10;99.90;;;;;;4959108;28;20495;-84
2022/05/31 08:07:49;;;;;;;9.38;4.38;;;15.20;99.90;;;;;;4959045;28;20052;-84
2022/05/31 08:10:17;;;;;;;9.00;3.45;;;15.30;99.90;;;;;;4975116;28;20046;-84
2022/05/31 08:12:42;;;;;;;7.80;2.95;;;15.40;99.90;;;;;;4975052;28;20100;-84
2022/05/31 08:15:10;;;;;;;9.43;3.33;;;15.50;99.90;;;;;;4959232;28;20038;-84
2022/05/31 08:17:36;;;;;;;8.15;2.70;;;15.70;98.90;;;;;;4974471;28;20443;-84
2022/05/31 08:20:04;;;;;;;8.25;2.88;;;15.70;98.30;;;;;;4958620;28;20042;-84
2022/05/31 08:22:30;;;;;;;8.43;3.00;;;15.70;96.00;;;;;;4975251;28;20054;-84
2022/05/31 08:24:55;;;;;;;9.15;3.13;;;15.80;96.60;;;;;;4959031;28;20034;-84
2022/05/31 08:27:21;;;;;;;8.23;3.70;;;15.80;94.40;;;;;;4974790;28;20089;-84
2022/05/31 08:29:46;;;;;;;9.63;4.05;;;15.80;93.60;;;;;;4958510;28;20137;-84
2022/05/31 08:32:12;;;;;;;8.77;4.30;;;15.80;94.30;;;;;;4974985;28;20105;-84
2022/05/31 08:34:38;;;;;;;8.35;3.80;;;15.90;90.80;;;;;;4958651;28;20089;-84
2022/05/31 08:37:04;;;;;;;10.77;4.53;;;15.90;91.80;;;;;;4974675;28;20416;-84
2022/05/31 08:39:29;;;;;;;8.98;4.55;;;16.00;89.80;;;;;;4982420;28;20039;-84
2022/05/31 08:42:04;;;;;;;10.07;4.75;;;16.10;89.30;;;;;;4992260;28;20030;-84
2022/05/31 08:44:41;;;;;;;9.18;4.68;;;16.20;91.00;;;;;;4974271;28;20088;-84
2022/05/31 08:47:22;;;;;;;10.27;5.30;;;16.20;90.00;;;;;;4974479;28;20042;-84
2022/05/31 08:53:19;;;;;;;12.20;5.65;;;16.50;86.30;;;;;;4974565;28;20136;-84
2022/05/31 08:58:47;;;;;;;11.82;6.68;;;16.70;83.60;;;;;;4973062;28;20492;-84
2022/05/31 09:01:18;;;;;;;10.57;6.05;;;16.60;75.90;;;;;;4958048;28;20065;-84
2022/05/31 09:03:48;;;;;;;9.98;5.90;;;16.80;76.90;;;;;;4955675;28;20034;-84
2022/05/31 09:06:39;;;;;;;11.07;6.22;;;16.80;75.00;;;;;;4968595;28;20785;-82
2022/05/31 09:09:19;;;;;;;10.20;5.60;;;16.90;74.40;;;;;;4950480;28;20046;-83
2022/05/31 09:12:03;;;;;;;10.52;5.70;;;17.00;76.80;;;;;;4970306;28;20108;-83
2022/05/31 09:14:44;;;;;;;10.38;5.57;;;17.00;78.10;;;;;;4954616;28;20133;-83
2022/05/31 09:17:39;;;;;;;11.20;6.10;;;17.00;77.10;;;;;;4970487;28;20519;-84
2022/05/31 09:20:13;;;;;;;9.15;4.95;;;17.20;83.80;;;;;;4971380;28;20114;-84
2022/05/31 09:22:43;;;;;;;9.80;4.85;;;17.30;72.80;;;;;;4961470;28;20081;-84
2022/05/31 09:25:09;;;;;;;9.57;4.63;;;17.40;71.80;;;;;;4978342;28;20450;-84
2022/05/31 09:27:45;;;;;;;11.35;5.07;;;17.40;67.70;;;;;;4961682;28;20137;-84
2022/05/31 09:30:23;;;;;;;10.35;4.72;;;17.40;66.50;;;;;;4962038;28;20096;-84
2022/05/31 09:33:08;;;;;;;10.00;5.50;;;17.50;71.10;;;;;;4962100;28;20073;-84
2022/05/31 09:35:53;;;;;;;9.82;4.75;;;17.50;65.70;;;;;;4978244;28;20144;-84
2022/05/31 09:38:43;;;;;;;10.43;5.57;;;17.50;68.70;;;;;;4977540;28;20132;-84
2022/05/31 09:41:28;;;;;;;9.88;4.93;;;17.50;69.20;;;;;;4977866;28;20125;-84
2022/05/31 09:44:13;;;;;;;8.15;3.55;;;17.50;64.60;;;;;;4977933;28;20080;-84
2022/05/31 09:46:45;;;;;;;8.73;3.38;;;17.40;64.30;;;;;;4961661;28;20039;-84
2022/05/31 09:49:31;;;;;;;9.15;3.85;;;17.40;61.10;;;;;;4977421;28;20038;-84
2022/05/31 09:51:56;;;;;;;9.80;3.80;;;17.40;61.20;;;;;;4977712;28;20038;-84
2022/05/31 09:57:27;;;;;;;10.02;4.13;;;17.50;63.30;;;;;;4977862;28;20133;-84
2022/05/31 10:00:00;;;;;;;7.65;3.05;;;17.60;62.40;;;;;;4977326;28;20124;-84
2022/05/31 10:02:35;;;;;;;8.43;3.38;;;17.70;59.90;;;;;;4977639;28;20042;-84
2022/05/31 10:05:20;;;;;;;7.63;3.20;;;17.80;58.20;;;;;;4961120;28;20045;-84
2022/05/31 10:07:47;;;;;;;14.13;4.13;;;17.90;61.90;;;;;;4977093;28;20050;-84
2022/05/31 10:10:34;;;;;;;10.88;3.97;;;18.00;60.10;;;;;;4961063;28;20046;-84
2022/05/31 10:13:08;;;;;;;8.38;2.95;;;18.10;57.50;;;;;;4960990;28;20046;-84
2022/05/31 10:15:45;;;;;;;9.35;3.35;;;18.10;58.30;;;;;;4958051;28;20844;-84
2022/05/31 10:18:14;;;;;;;8.63;3.75;;;18.20;57.60;;;;;;4976422;28;20046;-84
2022/05/31 10:20:54;;;;;;;7.97;3.25;;;18.20;57.60;;;;;;4976477;28;20035;-84
2022/05/31 10:23:22;;;;;;;6.95;3.13;;;18.20;57.50;;;;;;4960586;28;20038;-84
2022/05/31 10:25:56;;;;;;;9.05;3.80;;;18.10;56.10;;;;;;4960081;28;20053;-84
2022/05/31 10:28:37;;;;;;;7.88;3.28;;;18.10;58.50;;;;;;4960418;28;20128;-85
2022/05/31 10:31:20;;;;;;;11.40;3.30;;;18.10;57.20;;;;;;4976147;28;20038;-84
2022/05/31 10:33:56;;;;;;;7.90;3.35;;;18.10;57.20;;;;;;4960283;28;20026;-84
2022/05/31 10:36:25;;;;;;;9.95;3.42;;;18.20;55.70;;;;;;4976360;28;20080;-84
2022/05/31 10:38:51;;;;;;;10.38;3.70;;;18.20;55.80;;;;;;4975743;28;20442;-84
2022/05/31 10:41:29;;;;;;;8.60;3.00;;;18.10;56.20;;;;;;4976001;28;20034;-84
2022/05/31 10:44:15;;;;;;;8.13;2.97;;;18.10;54.00;;;;;;4973739;28;20038;-84
2022/05/31 10:46:45;;;;;;;6.03;2.63;;;18.10;53.20;;;;;;4976226;28;20041;-83
2022/05/31 10:49:22;;;;;;;7.05;2.90;;;18.00;53.00;;;;;;4975905;28;20042;-83
2022/05/31 10:52:12;;;;;;;8.07;2.67;;;18.10;52.10;;;;;;4960471;28;20053;-84
2022/05/31 10:54:46;;;;;;;8.93;3.58;;;18.00;53.00;;;;;;4976515;28;20558;-84
2022/05/31 10:57:39;;;;;;;9.20;3.42;;;18.00;51.40;;;;;;4976453;28;20086;-84
2022/05/31 11:00:04;;;;;;;7.55;3.15;;;18.00;54.50;;;;;;4976213;28;20141;-83
2022/05/31 11:02:46;;;;;;;7.57;3.15;;;17.90;53.70;;;;;;4975966;28;20465;-83
2022/05/31 11:05:19;;;;;;;7.13;2.93;;;17.80;52.60;;;;;;4975714;28;20420;-84
2022/05/31 11:13:59;;;;;;;8.77;3.60;;;17.80;52.00;;;;;;4999378;28;20508;-83
2022/05/31 11:16:37;;;;;;;7.88;3.33;;;17.80;50.90;;;;;;4975901;28;20057;-84
2022/05/31 11:19:29;;;;;;;9.02;4.00;;;17.80;53.00;;;;;;4975598;28;20129;-84
2022/05/31 11:22:32;;;;;;;7.70;3.58;;;17.80;53.90;;;;;;4975987;28;20077;-84
2022/05/31 11:25:36;;;;;;;8.57;4.32;;;17.90;54.00;;;;;;4975373;28;20086;-84
2022/05/31 11:28:21;;;;;;;7.85;3.88;;;17.90;52.30;;;;;;4991941;28;20038;-83
2022/05/31 11:31:09;;;;;;;9.57;4.15;;;18.00;53.30;;;;;;4975841;28;20125;-84
2022/05/31 11:34:01;;;;;;;9.18;4.30;;;18.00;54.70;;;;;;4958901;28;20041;-84
2022/05/31 11:36:43;;;;;;;9.43;3.95;;;18.00;54.90;;;;;;4952794;28;20452;-84
2022/05/31 11:39:34;;;;;;;9.73;3.87;;;18.00;53.60;;;;;;4975290;28;20038;-84
2022/05/31 11:42:17;;;;;;;9.35;4.07;;;18.00;53.80;;;;;;4975579;28;20034;-84
2022/05/31 11:44:51;;;;;;;8.88;3.97;;;18.00;55.70;;;;;;4975731;28;20089;-83
2022/05/31 11:47:42;;;;;;;9.02;4.18;;;18.00;54.80;;;;;;4975879;28;20400;-84
2022/05/31 11:50:09;;;;;;;8.98;4.00;;;18.00;55.40;;;;;;4975246;28;20057;-84
2022/05/31 11:52:40;;;;;;;9.48;4.13;;;18.10;56.40;;;;;;4975491;28;20499;-84
2022/05/31 11:55:25;;;;;;;11.30;4.90;;;18.20;57.20;;;;;;4975238;28;20565;-84
2022/05/31 11:58:10;;;;;;;9.02;4.63;;;18.30;57.20;;;;;;4975118;28;20045;-85
2022/05/31 12:01:01;;;;;;;9.05;4.57;;;18.20;56.00;;;;;;4975207;28;20050;-84
2022/05/31 12:03:39;;;;;;;9.93;5.63;;;18.10;57.70;;;;;;4975247;28;20499;-84
2022/05/31 12:06:30;;;;;;;9.68;5.38;;;18.10;60.60;;;;;;4975191;28;20068;-84
2022/05/31 12:09:24;;;;;;;10.27;5.47;;;18.10;61.30;;;;;;4975046;28;20404;-84
2022/05/31 12:11:52;;;;;;;9.65;5.45;;;18.10;60.20;;;;;;4975539;28;20435;-85
2022/05/31 12:14:20;;;;;;;10.18;5.47;;;18.00;60.10;;;;;;4975044;28;20120;-84
2022/05/31 12:16:47;;;;;;;8.77;4.85;;;18.00;61.60;;;;;;4959086;28;20101;-85
2022/05/31 12:19:20;;;;;;;8.75;5.25;;;17.90;60.40;;;;;;4974673;28;20042;-84
2022/05/31 12:22:01;;;;;;;9.25;5.28;;;17.90;59.80;;;;;;4975070;28;20407;-85
2022/05/31 12:24:35;;;;;;;10.07;5.70;;;17.90;60.70;;;;;;4975359;28;20038;-85
2022/05/31 12:27:10;;;;;;;10.57;5.13;;;17.90;60.30;;;;;;4975255;28;20039;-85
2022/05/31 12:29:43;;;;;;;9.65;5.45;;;18.00;60.30;;;;;;4958481;28;20132;-84
2022/05/31 12:32:36;;;;;;;10.38;5.35;;;18.20;61.00;;;;;;4975141;28;20096;-84
2022/05/31 12:35:05;;;;;;;9.70;5.70;;;18.40;62.20;;;;;;4974947;28;20054;-84
2022/05/31 12:38:00;;;;;;;10.43;6.22;;;18.40;59.30;;;;;;4974788;28;20053;-85
2022/05/31 12:40:34;;;;;;;9.40;5.82;;;18.50;55.90;;;;;;4974768;28;20047;-85
2022/05/31 12:43:11;;;;;;;10.38;5.63;;;18.50;57.80;;;;;;4974829;28;20045;-84
2022/05/31 12:45:42;;;;;;;11.30;5.93;;;18.50;57.40;;;;;;4978960;28;20034;-84
2022/05/31 12:48:19;;;;;;;12.10;5.95;;;18.50;59.40;;;;;;4978451;28;20618;-84
2022/05/31 12:50:46;;;;;;;8.63;5.70;;;18.50;59.40;;;;;;4978978;28;20447;-84
2022/05/31 12:53:23;;;;;;;11.02;5.80;;;18.50;59.20;;;;;;4962627;28;20431;-84
2022/05/31 12:55:58;;;;;;;8.60;5.18;;;18.40;55.30;;;;;;4978714;28;20495;-84
2022/05/31 12:58:36;;;;;;;9.30;5.85;;;18.50;56.80;;;;;;4978259;28;20404;-84
2022/05/31 13:01:13;;;;;;;11.38;5.88;;;18.60;57.10;;;;;;4978474;28;20121;-84
2022/05/31 13:03:53;;;;;;;9.18;5.43;;;18.60;56.30;;;;;;4978552;28;20070;-85
2022/05/31 13:06:24;;;;;;;9.93;5.47;;;18.70;58.30;;;;;;4978500;28;20125;-84
2022/05/31 13:08:52;;;;;;;11.18;5.40;;;18.90;58.90;;;;;;4978382;28;20053;-84
2022/05/31 13:20:44;;;;;;;8.32;4.70;;;19.50;53.20;;;;;;4978110;28;20051;-84
2022/05/31 13:23:35;;;;;;;9.45;4.40;;;19.70;53.00;;;;;;4978420;28;20527;-84
2022/05/31 13:26:14;;;;;;;8.73;3.83;;;19.90;54.70;;;;;;4978040;28;20503;-84
2022/05/31 13:28:56;;;;;;;9.55;4.03;;;20.00;51.60;;;;;;4978000;28;20042;-84
2022/05/31 13:31:26;;;;;;;9.30;4.20;;;20.00;51.90;;;;;;4978364;28;20539;-84
2022/05/31 13:34:07;;;;;;;10.35;4.57;;;19.90;51.80;;;;;;4977908;28;20084;-84
2022/05/31 13:36:45;;;;;;;9.40;4.78;;;19.90;52.10;;;;;;4978253;28;20134;-84
2022/05/31 13:39:13;;;;;;;8.35;3.80;;;19.70;54.10;;;;;;4976964;28;20034;-84
2022/05/31 13:41:54;;;;;;;9.38;3.80;;;19.60;52.40;;;;;;4973691;28;20496;-84
2022/05/31 13:44:29;;;;;;;9.50;4.13;;;19.50;53.00;;;;;;4977683;28;20451;-84
2022/05/31 13:46:59;;;;;;;8.63;3.80;;;19.30;53.30;;;;;;4978065;28;20038;-84